Airfield :
LOGIN :

Register | Disclaimer

   EN    FR    IT 

 










Legend :    VFR   Marginal VFR   IFR   Intensive IFR   Very Intensive IFR
Visi :
Ceiling :
>= 8 km
>= 3000ft
5 to 8 km
1000 to 3000 ft
1500m to 5 km
500 to 1000 ft
800 to 1500m
200 to 500 ft
< 800m
< 200 ft
Symbols :   Thunderstorms  Fog  Heavy snow  Heavy precipitations  Wind > 20 kt
SIGMETs :     Misc.  Thunderstorms  Icing  Turbulence  Mountain Waves  Volcanic Ashes






- Airport Elevation : 352 ft
- IATA code : KSD


ESOK - Karlstad

CURRENT METAR :
  • 141220Z AUTO 18009KT 150V220 9999 FEW031/// SCT080/// 15/09 Q1012

EXPIRED METARs :
  • 141150Z 18003KT 140V220 9999 VCSH FEW020CB SCT028 13/09 Q1012
  • 141120Z 21009KT 9999 SHRA SCT020CB 12/09 Q1012
  • 141050Z 17009KT 9999 VCSH SCT020CB 13/09 Q1012
  • 141020Z 19008KT 9999 VCSH SCT018CB 12/09 Q1012
  • 140950Z 19008KT 160V220 9999 SCT024 12/08 Q1012
  • 140920Z AUTO 19008KT 9999 FEW021/// SCT025/// BKN041/// 13/08 Q1012
  • 140850Z 17009KT 150V210 9999 SCT027TCU 13/08 Q1012
  • 140820Z 19009KT 9999 SCT025TCU 12/07 Q1012
  • 140750Z 19010KT 9999 SCT022TCU 13/07 Q1011

TAF TAF ESOK
Valid from the 14 at 12:00 until the 14 at 14:00 UTC


141130Z 1412/1414 19009KT 9999 SCT025
TEMPO 1412/1414 SCT025CB



MET'MAP, your aeronautical weather chart ! - Copyright ORBIFLY December 2007 - Disclaimer

ORBIFLY MET'MAP TEAM :

Programming & Development : Alexandra Zaïnal
Original concept : Baudouin d'Aumeries
Technical & hardware support : Manuel Goepfert
Assistance : Marc-Olivier Méhu




SOURCES & CREDITS :

   NOAA